sensor_id;sensor_type;location;lat;lon;timestamp;P1;durP1;ratioP1;P2;durP2;ratioP2
32200;SDS011;18701;45.588;5.288;2022-12-19T00:01:09;9.13;;;4.60;;
32200;SDS011;18701;45.588;5.288;2022-12-19T00:03:43;9.88;;;4.72;;
32200;SDS011;18701;45.588;5.288;2022-12-19T00:06:10;9.38;;;4.25;;
32200;SDS011;18701;45.588;5.288;2022-12-19T00:08:36;7.78;;;3.85;;
32200;SDS011;18701;45.588;5.288;2022-12-19T00:11:02;4.30;;;2.85;;
32200;SDS011;18701;45.588;5.288;2022-12-19T00:13:28;7.07;;;1.48;;
32200;SDS011;18701;45.588;5.288;2022-12-19T00:16:17;3.50;;;1.25;;
32200;SDS011;18701;45.588;5.288;2022-12-19T00:18:44;4.93;;;1.42;;
32200;SDS011;18701;45.588;5.288;2022-12-19T00:21:12;6.35;;;1.33;;
32200;SDS011;18701;45.588;5.288;2022-12-19T00:23:39;2.63;;;1.10;;
32200;SDS011;18701;45.588;5.288;2022-12-19T00:26:06;5.30;;;0.90;;
32200;SDS011;18701;45.588;5.288;2022-12-19T00:28:32;3.20;;;0.80;;
32200;SDS011;18701;45.588;5.288;2022-12-19T00:30:59;2.22;;;1.10;;
32200;SDS011;18701;45.588;5.288;2022-12-19T00:33:25;4.03;;;1.48;;
32200;SDS011;18701;45.588;5.288;2022-12-19T00:35:55;2.97;;;0.93;;
32200;SDS011;18701;45.588;5.288;2022-12-19T00:38:25;4.55;;;1.80;;
32200;SDS011;18701;45.588;5.288;2022-12-19T00:40:51;6.05;;;1.10;;
32200;SDS011;18701;45.588;5.288;2022-12-19T00:43:17;5.20;;;1.63;;
32200;SDS011;18701;45.588;5.288;2022-12-19T00:45:43;2.33;;;0.80;;
32200;SDS011;18701;45.588;5.288;2022-12-19T00:48:08;2.78;;;1.05;;
32200;SDS011;18701;45.588;5.288;2022-12-19T00:50:34;4.22;;;1.23;;
32200;SDS011;18701;45.588;5.288;2022-12-19T00:53:02;3.40;;;0.95;;
32200;SDS011;18701;45.588;5.288;2022-12-19T00:55:27;2.50;;;0.50;;
32200;SDS011;18701;45.588;5.288;2022-12-19T00:57:53;1.17;;;0.57;;
32200;SDS011;18701;45.588;5.288;2022-12-19T01:00:19;2.95;;;0.38;;
32200;SDS011;18701;45.588;5.288;2022-12-19T01:02:45;2.65;;;0.43;;
32200;SDS011;18701;45.588;5.288;2022-12-19T01:05:10;3.95;;;0.73;;
32200;SDS011;18701;45.588;5.288;2022-12-19T01:07:36;1.90;;;0.50;;
32200;SDS011;18701;45.588;5.288;2022-12-19T01:10:02;3.13;;;0.30;;
32200;SDS011;18701;45.588;5.288;2022-12-19T01:12:28;1.73;;;0.30;;
32200;SDS011;18701;45.588;5.288;2022-12-19T01:15:13;3.40;;;0.30;;
32200;SDS011;18701;45.588;5.288;2022-12-19T01:17:44;2.85;;;0.32;;
32200;SDS011;18701;45.588;5.288;2022-12-19T01:20:11;0.60;;;0.28;;
32200;SDS011;18701;45.588;5.288;2022-12-19T01:22:41;6.05;;;0.40;;
32200;SDS011;18701;45.588;5.288;2022-12-19T01:25:07;2.25;;;0.30;;
32200;SDS011;18701;45.588;5.288;2022-12-19T01:27:32;3.40;;;0.30;;
32200;SDS011;18701;45.588;5.288;2022-12-19T01:29:58;4.35;;;0.52;;
32200;SDS011;18701;45.588;5.288;2022-12-19T01:32:23;3.30;;;0.40;;
32200;SDS011;18701;45.588;5.288;2022-12-19T01:34:49;6.70;;;0.60;;
32200;SDS011;18701;45.588;5.288;2022-12-19T01:37:15;4.25;;;0.28;;
32200;SDS011;18701;45.588;5.288;2022-12-19T01:39:40;4.25;;;0.50;;
32200;SDS011;18701;45.588;5.288;2022-12-19T01:42:16;2.83;;;0.50;;
32200;SDS011;18701;45.588;5.288;2022-12-19T01:50:33;1.63;;;0.40;;
32200;SDS011;18701;45.588;5.288;2022-12-19T01:52:59;6.25;;;0.40;;
32200;SDS011;18701;45.588;5.288;2022-12-19T01:55:25;1.80;;;0.45;;
32200;SDS011;18701;45.588;5.288;2022-12-19T01:57:52;4.22;;;0.40;;
32200;SDS011;18701;45.588;5.288;2022-12-19T02:00:18;2.50;;;0.50;;
32200;SDS011;18701;45.588;5.288;2022-12-19T02:02:48;2.10;;;0.50;;
32200;SDS011;18701;45.588;5.288;2022-12-19T02:05:19;1.58;;;0.55;;
32200;SDS011;18701;45.588;5.288;2022-12-19T02:07:45;3.20;;;0.47;;
32200;SDS011;18701;45.588;5.288;2022-12-19T02:10:13;3.97;;;0.65;;
32200;SDS011;18701;45.588;5.288;2022-12-19T02:12:39;1.50;;;0.40;;
32200;SDS011;18701;45.588;5.288;2022-12-19T02:15:07;2.20;;;0.80;;
32200;SDS011;18701;45.588;5.288;2022-12-19T02:17:39;2.28;;;0.40;;
32200;SDS011;18701;45.588;5.288;2022-12-19T02:25:47;2.63;;;0.40;;
32200;SDS011;18701;45.588;5.288;2022-12-19T02:31:44;1.13;;;0.38;;
32200;SDS011;18701;45.588;5.288;2022-12-19T02:34:02;1.77;;;0.40;;
32200;SDS011;18701;45.588;5.288;2022-12-19T02:37:01;5.75;;;0.68;;
32200;SDS011;18701;45.588;5.288;2022-12-19T02:43:05;4.63;;;0.70;;
32200;SDS011;18701;45.588;5.288;2022-12-19T02:45:34;1.73;;;0.50;;
32200;SDS011;18701;45.588;5.288;2022-12-19T02:48:01;3.30;;;0.47;;
32200;SDS011;18701;45.588;5.288;2022-12-19T02:50:36;2.58;;;0.43;;
32200;SDS011;18701;45.588;5.288;2022-12-19T02:53:07;4.00;;;0.75;;
32200;SDS011;18701;45.588;5.288;2022-12-19T03:04:13;3.05;;;0.60;;
32200;SDS011;18701;45.588;5.288;2022-12-19T03:07:17;1.98;;;0.75;;
32200;SDS011;18701;45.588;5.288;2022-12-19T03:09:57;1.60;;;0.88;;
32200;SDS011;18701;45.588;5.288;2022-12-19T03:12:45;4.95;;;0.60;;
32200;SDS011;18701;45.588;5.288;2022-12-19T03:15:21;4.25;;;0.60;;
32200;SDS011;18701;45.588;5.288;2022-12-19T03:17:48;3.15;;;0.50;;
32200;SDS011;18701;45.588;5.288;2022-12-19T03:20:22;2.58;;;0.38;;
32200;SDS011;18701;45.588;5.288;2022-12-19T03:22:52;2.55;;;0.75;;
32200;SDS011;18701;45.588;5.288;2022-12-19T03:25:18;4.32;;;0.75;;
32200;SDS011;18701;45.588;5.288;2022-12-19T03:27:46;1.77;;;0.63;;
32200;SDS011;18701;45.588;5.288;2022-12-19T03:30:14;2.90;;;0.47;;
32200;SDS011;18701;45.588;5.288;2022-12-19T03:32:40;2.00;;;0.50;;
32200;SDS011;18701;45.588;5.288;2022-12-19T03:35:13;2.83;;;0.60;;
32200;SDS011;18701;45.588;5.288;2022-12-19T03:37:43;4.75;;;0.77;;
32200;SDS011;18701;45.588;5.288;2022-12-19T03:40:19;1.48;;;0.70;;
32200;SDS011;18701;45.588;5.288;2022-12-19T03:42:47;2.60;;;0.43;;
32200;SDS011;18701;45.588;5.288;2022-12-19T03:48:47;2.45;;;0.60;;
32200;SDS011;18701;45.588;5.288;2022-12-19T03:51:27;1.50;;;0.68;;
32200;SDS011;18701;45.588;5.288;2022-12-19T03:54:25;4.90;;;0.60;;
32200;SDS011;18701;45.588;5.288;2022-12-19T03:59:38;1.55;;;0.40;;
32200;SDS011;18701;45.588;5.288;2022-12-19T04:02:24;1.27;;;0.52;;
32200;SDS011;18701;45.588;5.288;2022-12-19T04:04:51;4.20;;;0.75;;
32200;SDS011;18701;45.588;5.288;2022-12-19T04:07:20;3.03;;;0.73;;
32200;SDS011;18701;45.588;5.288;2022-12-19T04:09:47;2.75;;;0.30;;
32200;SDS011;18701;45.588;5.288;2022-12-19T04:12:16;1.98;;;0.35;;
32200;SDS011;18701;45.588;5.288;2022-12-19T04:14:45;2.25;;;0.68;;
32200;SDS011;18701;45.588;5.288;2022-12-19T04:19:59;1.05;;;0.30;;
32200;SDS011;18701;45.588;5.288;2022-12-19T04:22:36;2.28;;;0.40;;
32200;SDS011;18701;45.588;5.288;2022-12-19T04:25:15;3.53;;;0.20;;
32200;SDS011;18701;45.588;5.288;2022-12-19T04:27:50;0.75;;;0.30;;
32200;SDS011;18701;45.588;5.288;2022-12-19T04:30:19;1.02;;;0.30;;
32200;SDS011;18701;45.588;5.288;2022-12-19T04:32:45;2.80;;;0.28;;
32200;SDS011;18701;45.588;5.288;2022-12-19T04:35:12;1.27;;;0.28;;
32200;SDS011;18701;45.588;5.288;2022-12-19T04:37:38;1.65;;;0.25;;
32200;SDS011;18701;45.588;5.288;2022-12-19T04:40:04;1.13;;;0.30;;
32200;SDS011;18701;45.588;5.288;2022-12-19T04:42:32;2.67;;;0.30;;
32200;SDS011;18701;45.588;5.288;2022-12-19T04:44:57;3.50;;;0.20;;
32200;SDS011;18701;45.588;5.288;2022-12-19T04:47:23;1.85;;;0.20;;
32200;SDS011;18701;45.588;5.288;2022-12-19T04:49:49;2.70;;;0.30;;
32200;SDS011;18701;45.588;5.288;2022-12-19T04:52:14;1.75;;;0.28;;
32200;SDS011;18701;45.588;5.288;2022-12-19T04:54:40;1.02;;;0.20;;
32200;SDS011;18701;45.588;5.288;2022-12-19T04:57:05;2.00;;;0.22;;
32200;SDS011;18701;45.588;5.288;2022-12-19T04:59:31;0.68;;;0.20;;
32200;SDS011;18701;45.588;5.288;2022-12-19T05:01:57;1.08;;;0.22;;
32200;SDS011;18701;45.588;5.288;2022-12-19T05:04:22;1.10;;;0.28;;
32200;SDS011;18701;45.588;5.288;2022-12-19T05:06:48;0.65;;;0.20;;
32200;SDS011;18701;45.588;5.288;2022-12-19T05:09:14;1.75;;;0.52;;
32200;SDS011;18701;45.588;5.288;2022-12-19T05:11:40;1.40;;;0.40;;
32200;SDS011;18701;45.588;5.288;2022-12-19T05:14:05;1.48;;;0.40;;
32200;SDS011;18701;45.588;5.288;2022-12-19T05:16:31;2.25;;;0.32;;
32200;SDS011;18701;45.588;5.288;2022-12-19T05:18:56;11.15;;;2.70;;
32200;SDS011;18701;45.588;5.288;2022-12-19T05:21:22;8.13;;;1.85;;
32200;SDS011;18701;45.588;5.288;2022-12-19T05:23:48;5.03;;;1.52;;
32200;SDS011;18701;45.588;5.288;2022-12-19T05:26:15;6.60;;;0.80;;
32200;SDS011;18701;45.588;5.288;2022-12-19T05:28:40;3.17;;;1.10;;
32200;SDS011;18701;45.588;5.288;2022-12-19T05:31:07;4.40;;;1.05;;
32200;SDS011;18701;45.588;5.288;2022-12-19T05:33:36;2.95;;;1.30;;
32200;SDS011;18701;45.588;5.288;2022-12-19T05:36:03;2.58;;;1.00;;
32200;SDS011;18701;45.588;5.288;2022-12-19T05:38:29;4.80;;;0.95;;
32200;SDS011;18701;45.588;5.288;2022-12-19T05:40:55;3.03;;;0.98;;
32200;SDS011;18701;45.588;5.288;2022-12-19T05:43:21;4.35;;;0.55;;
32200;SDS011;18701;45.588;5.288;2022-12-19T05:45:46;3.40;;;0.60;;
32200;SDS011;18701;45.588;5.288;2022-12-19T05:48:12;6.20;;;1.00;;
32200;SDS011;18701;45.588;5.288;2022-12-19T05:50:37;2.92;;;0.82;;
32200;SDS011;18701;45.588;5.288;2022-12-19T05:53:03;2.28;;;0.60;;
32200;SDS011;18701;45.588;5.288;2022-12-19T05:55:29;2.20;;;0.60;;
32200;SDS011;18701;45.588;5.288;2022-12-19T05:57:54;3.55;;;0.90;;
32200;SDS011;18701;45.588;5.288;2022-12-19T06:00:20;3.30;;;0.85;;
32200;SDS011;18701;45.588;5.288;2022-12-19T06:02:46;2.50;;;0.80;;
32200;SDS011;18701;45.588;5.288;2022-12-19T06:05:12;4.82;;;1.02;;
32200;SDS011;18701;45.588;5.288;2022-12-19T06:07:37;1.48;;;0.57;;
32200;SDS011;18701;45.588;5.288;2022-12-19T06:10:03;2.10;;;0.80;;
32200;SDS011;18701;45.588;5.288;2022-12-19T06:12:30;1.73;;;0.60;;
32200;SDS011;18701;45.588;5.288;2022-12-19T06:14:55;1.92;;;0.73;;
32200;SDS011;18701;45.588;5.288;2022-12-19T06:17:21;3.85;;;1.00;;
32200;SDS011;18701;45.588;5.288;2022-12-19T06:19:47;3.08;;;1.27;;
32200;SDS011;18701;45.588;5.288;2022-12-19T06:22:12;3.80;;;1.10;;
32200;SDS011;18701;45.588;5.288;2022-12-19T06:24:38;4.75;;;1.08;;
32200;SDS011;18701;45.588;5.288;2022-12-19T06:27:03;8.07;;;1.40;;
32200;SDS011;18701;45.588;5.288;2022-12-19T06:29:29;3.83;;;1.33;;
32200;SDS011;18701;45.588;5.288;2022-12-19T06:31:55;3.47;;;1.42;;
32200;SDS011;18701;45.588;5.288;2022-12-19T06:34:20;5.45;;;2.03;;
32200;SDS011;18701;45.588;5.288;2022-12-19T06:36:46;4.90;;;2.33;;
32200;SDS011;18701;45.588;5.288;2022-12-19T06:39:12;5.85;;;2.22;;
32200;SDS011;18701;45.588;5.288;2022-12-19T06:41:39;4.72;;;2.15;;
32200;SDS011;18701;45.588;5.288;2022-12-19T06:46:50;4.30;;;2.15;;
32200;SDS011;18701;45.588;5.288;2022-12-19T06:49:16;7.32;;;2.50;;
32200;SDS011;18701;45.588;5.288;2022-12-19T06:51:42;5.28;;;2.78;;
32200;SDS011;18701;45.588;5.288;2022-12-19T06:54:09;4.53;;;2.88;;
32200;SDS011;18701;45.588;5.288;2022-12-19T06:56:35;6.75;;;2.30;;
32200;SDS011;18701;45.588;5.288;2022-12-19T06:59:02;9.85;;;2.65;;
32200;SDS011;18701;45.588;5.288;2022-12-19T07:03:56;7.47;;;3.17;;
32200;SDS011;18701;45.588;5.288;2022-12-19T07:06:23;8.68;;;3.60;;
32200;SDS011;18701;45.588;5.288;2022-12-19T07:08:48;9.80;;;3.42;;
32200;SDS011;18701;45.588;5.288;2022-12-19T07:11:14;10.55;;;3.33;;
32200;SDS011;18701;45.588;5.288;2022-12-19T07:13:39;12.82;;;5.40;;
32200;SDS011;18701;45.588;5.288;2022-12-19T07:16:05;15.07;;;5.07;;
32200;SDS011;18701;45.588;5.288;2022-12-19T07:18:33;12.43;;;4.53;;
32200;SDS011;18701;45.588;5.288;2022-12-19T07:21:01;8.57;;;3.92;;
32200;SDS011;18701;45.588;5.288;2022-12-19T07:23:28;10.68;;;5.65;;
32200;SDS011;18701;45.588;5.288;2022-12-19T07:25:57;12.43;;;5.88;;
32200;SDS011;18701;45.588;5.288;2022-12-19T07:28:23;9.93;;;5.97;;
32200;SDS011;18701;45.588;5.288;2022-12-19T07:30:49;11.90;;;6.63;;
32200;SDS011;18701;45.588;5.288;2022-12-19T07:33:14;12.15;;;6.65;;
32200;SDS011;18701;45.588;5.288;2022-12-19T07:35:40;13.85;;;6.95;;
32200;SDS011;18701;45.588;5.288;2022-12-19T07:38:06;13.25;;;7.05;;
32200;SDS011;18701;45.588;5.288;2022-12-19T07:40:32;16.33;;;7.78;;
32200;SDS011;18701;45.588;5.288;2022-12-19T07:43:02;19.92;;;8.02;;
32200;SDS011;18701;45.588;5.288;2022-12-19T07:45:29;14.18;;;7.45;;
32200;SDS011;18701;45.588;5.288;2022-12-19T07:47:58;15.52;;;7.03;;
32200;SDS011;18701;45.588;5.288;2022-12-19T07:50:25;10.30;;;5.40;;
32200;SDS011;18701;45.588;5.288;2022-12-19T07:52:50;12.65;;;6.38;;
32200;SDS011;18701;45.588;5.288;2022-12-19T07:55:16;13.68;;;7.70;;
32200;SDS011;18701;45.588;5.288;2022-12-19T07:57:42;12.52;;;6.18;;
32200;SDS011;18701;45.588;5.288;2022-12-19T08:00:07;8.82;;;5.13;;
32200;SDS011;18701;45.588;5.288;2022-12-19T08:02:33;8.82;;;4.88;;
32200;SDS011;18701;45.588;5.288;2022-12-19T08:04:59;8.70;;;4.65;;
32200;SDS011;18701;45.588;5.288;2022-12-19T08:07:25;9.95;;;5.32;;
32200;SDS011;18701;45.588;5.288;2022-12-19T08:09:50;9.30;;;4.80;;
32200;SDS011;18701;45.588;5.288;2022-12-19T08:12:16;12.07;;;5.43;;
32200;SDS011;18701;45.588;5.288;2022-12-19T08:14:42;10.63;;;5.10;;
32200;SDS011;18701;45.588;5.288;2022-12-19T08:17:07;15.48;;;6.00;;
32200;SDS011;18701;45.588;5.288;2022-12-19T08:19:33;10.45;;;5.65;;
32200;SDS011;18701;45.588;5.288;2022-12-19T08:21:59;10.95;;;5.55;;
32200;SDS011;18701;45.588;5.288;2022-12-19T08:24:24;12.30;;;6.18;;
32200;SDS011;18701;45.588;5.288;2022-12-19T08:26:50;15.18;;;6.78;;
32200;SDS011;18701;45.588;5.288;2022-12-19T08:29:16;17.35;;;6.90;;
32200;SDS011;18701;45.588;5.288;2022-12-19T08:31:41;12.88;;;7.25;;
32200;SDS011;18701;45.588;5.288;2022-12-19T08:34:07;15.73;;;8.05;;
32200;SDS011;18701;45.588;5.288;2022-12-19T08:36:32;14.25;;;7.28;;
32200;SDS011;18701;45.588;5.288;2022-12-19T08:38:58;15.18;;;7.63;;
32200;SDS011;18701;45.588;5.288;2022-12-19T08:41:24;20.08;;;8.05;;
32200;SDS011;18701;45.588;5.288;2022-12-19T08:43:50;17.20;;;8.35;;
32200;SDS011;18701;45.588;5.288;2022-12-19T08:46:17;14.80;;;7.25;;
32200;SDS011;18701;45.588;5.288;2022-12-19T08:48:44;14.40;;;6.93;;
32200;SDS011;18701;45.588;5.288;2022-12-19T08:51:10;17.98;;;8.20;;
32200;SDS011;18701;45.588;5.288;2022-12-19T08:53:37;14.18;;;6.82;;
32200;SDS011;18701;45.588;5.288;2022-12-19T08:56:06;18.40;;;9.07;;
32200;SDS011;18701;45.588;5.288;2022-12-19T08:58:36;13.60;;;8.50;;
32200;SDS011;18701;45.588;5.288;2022-12-19T09:01:03;18.25;;;9.07;;
32200;SDS011;18701;45.588;5.288;2022-12-19T09:03:32;14.07;;;5.38;;
32200;SDS011;18701;45.588;5.288;2022-12-19T09:06:00;5.20;;;2.38;;
32200;SDS011;18701;45.588;5.288;2022-12-19T09:08:27;8.52;;;5.00;;
32200;SDS011;18701;45.588;5.288;2022-12-19T09:11:00;8.85;;;5.03;;
32200;SDS011;18701;45.588;5.288;2022-12-19T09:13:37;16.48;;;6.07;;
32200;SDS011;18701;45.588;5.288;2022-12-19T09:16:05;14.63;;;7.03;;
32200;SDS011;18701;45.588;5.288;2022-12-19T09:18:31;11.85;;;6.20;;
32200;SDS011;18701;45.588;5.288;2022-12-19T09:20:57;12.60;;;7.43;;
32200;SDS011;18701;45.588;5.288;2022-12-19T09:23:23;16.33;;;7.43;;
32200;SDS011;18701;45.588;5.288;2022-12-19T09:25:53;14.48;;;4.90;;
32200;SDS011;18701;45.588;5.288;2022-12-19T09:28:20;11.18;;;6.10;;
32200;SDS011;18701;45.588;5.288;2022-12-19T09:33:41;8.50;;;4.85;;
32200;SDS011;18701;45.588;5.288;2022-12-19T09:36:09;11.95;;;4.38;;
32200;SDS011;18701;45.588;5.288;2022-12-19T09:38:36;7.75;;;1.88;;
32200;SDS011;18701;45.588;5.288;2022-12-19T09:44:28;8.40;;;3.22;;
32200;SDS011;18701;45.588;5.288;2022-12-19T09:47:13;6.35;;;2.20;;
32200;SDS011;18701;45.588;5.288;2022-12-19T09:49:52;4.72;;;1.77;;
32200;SDS011;18701;45.588;5.288;2022-12-19T09:55:05;3.90;;;1.40;;
32200;SDS011;18701;45.588;5.288;2022-12-19T09:57:39;3.88;;;1.30;;
32200;SDS011;18701;45.588;5.288;2022-12-19T10:00:28;1.98;;;0.93;;
32200;SDS011;18701;45.588;5.288;2022-12-19T10:03:14;2.63;;;1.20;;
32200;SDS011;18701;45.588;5.288;2022-12-19T10:08:42;3.75;;;0.95;;
32200;SDS011;18701;45.588;5.288;2022-12-19T10:11:20;2.67;;;0.80;;
32200;SDS011;18701;45.588;5.288;2022-12-19T10:22:39;3.70;;;0.75;;
32200;SDS011;18701;45.588;5.288;2022-12-19T10:25:39;5.97;;;0.98;;
32200;SDS011;18701;45.588;5.288;2022-12-19T10:31:29;1.70;;;0.63;;
32200;SDS011;18701;45.588;5.288;2022-12-19T10:36:31;1.40;;;0.38;;
32200;SDS011;18701;45.588;5.288;2022-12-19T10:39:05;2.57;;;0.80;;
32200;SDS011;18701;45.588;5.288;2022-12-19T10:41:38;1.60;;;0.45;;
32200;SDS011;18701;45.588;5.288;2022-12-19T10:44:08;1.45;;;0.30;;
32200;SDS011;18701;45.588;5.288;2022-12-19T10:46:41;0.95;;;0.30;;
32200;SDS011;18701;45.588;5.288;2022-12-19T10:49:15;1.63;;;0.28;;
32200;SDS011;18701;45.588;5.288;2022-12-19T10:51:52;2.00;;;0.38;;
32200;SDS011;18701;45.588;5.288;2022-12-19T10:54:38;2.63;;;0.28;;
32200;SDS011;18701;45.588;5.288;2022-12-19T10:57:29;4.47;;;0.40;;
32200;SDS011;18701;45.588;5.288;2022-12-19T11:07:58;1.20;;;0.20;;
32200;SDS011;18701;45.588;5.288;2022-12-19T11:13:24;1.35;;;0.10;;
32200;SDS011;18701;45.588;5.288;2022-12-19T11:15:53;0.93;;;0.20;;
32200;SDS011;18701;45.588;5.288;2022-12-19T11:18:20;2.33;;;0.20;;
32200;SDS011;18701;45.588;5.288;2022-12-19T11:23:25;1.80;;;0.20;;
32200;SDS011;18701;45.588;5.288;2022-12-19T11:25:57;2.22;;;0.20;;
32200;SDS011;18701;45.588;5.288;2022-12-19T11:28:34;4.25;;;0.40;;
32200;SDS011;18701;45.588;5.288;2022-12-19T11:31:20;0.88;;;0.20;;
32200;SDS011;18701;45.588;5.288;2022-12-19T11:34:12;2.10;;;0.30;;
32200;SDS011;18701;45.588;5.288;2022-12-19T11:36:44;0.70;;;0.20;;
32200;SDS011;18701;45.588;5.288;2022-12-19T11:45:29;2.25;;;0.20;;
32200;SDS011;18701;45.588;5.288;2022-12-19T11:48:15;1.75;;;0.50;;
32200;SDS011;18701;45.588;5.288;2022-12-19T11:53:33;3.13;;;0.30;;
32200;SDS011;18701;45.588;5.288;2022-12-19T11:56:15;1.60;;;0.20;;
32200;SDS011;18701;45.588;5.288;2022-12-19T11:58:50;1.65;;;0.30;;
32200;SDS011;18701;45.588;5.288;2022-12-19T12:01:39;1.50;;;0.22;;
32200;SDS011;18701;45.588;5.288;2022-12-19T12:06:52;1.88;;;0.20;;
32200;SDS011;18701;45.588;5.288;2022-12-19T12:09:34;3.25;;;0.38;;
32200;SDS011;18701;45.588;5.288;2022-12-19T12:17:57;1.48;;;0.20;;
32200;SDS011;18701;45.588;5.288;2022-12-19T12:23:32;2.58;;;0.77;;
32200;SDS011;18701;45.588;5.288;2022-12-19T12:26:25;1.38;;;0.20;;
32200;SDS011;18701;45.588;5.288;2022-12-19T12:45:00;5.03;;;0.40;;
32200;SDS011;18701;45.588;5.288;2022-12-19T12:47:33;4.03;;;0.30;;
32200;SDS011;18701;45.588;5.288;2022-12-19T12:50:01;3.38;;;0.30;;
32200;SDS011;18701;45.588;5.288;2022-12-19T12:55:49;1.23;;;0.13;;
32200;SDS011;18701;45.588;5.288;2022-12-19T12:57:58;1.15;;;0.20;;
32200;SDS011;18701;45.588;5.288;2022-12-19T13:00:32;1.92;;;0.20;;
32200;SDS011;18701;45.588;5.288;2022-12-19T13:03:12;1.70;;;0.25;;
32200;SDS011;18701;45.588;5.288;2022-12-19T13:06:02;1.50;;;0.40;;
32200;SDS011;18701;45.588;5.288;2022-12-19T13:09:00;1.10;;;0.20;;
32200;SDS011;18701;45.588;5.288;2022-12-19T13:17:59;2.90;;;0.20;;
32200;SDS011;18701;45.588;5.288;2022-12-19T13:22:39;3.25;;;0.25;;
32200;SDS011;18701;45.588;5.288;2022-12-19T13:27:57;4.28;;;0.60;;
32200;SDS011;18701;45.588;5.288;2022-12-19T13:30:38;4.28;;;0.85;;
32200;SDS011;18701;45.588;5.288;2022-12-19T13:39:33;1.50;;;0.20;;
32200;SDS011;18701;45.588;5.288;2022-12-19T13:44:55;0.73;;;0.17;;
32200;SDS011;18701;45.588;5.288;2022-12-19T13:47:25;2.55;;;0.20;;
32200;SDS011;18701;45.588;5.288;2022-12-19T13:49:56;4.28;;;0.20;;
32200;SDS011;18701;45.588;5.288;2022-12-19T13:52:22;1.92;;;0.20;;
32200;SDS011;18701;45.588;5.288;2022-12-19T13:54:49;6.68;;;0.30;;
32200;SDS011;18701;45.588;5.288;2022-12-19T13:57:19;3.80;;;0.40;;
32200;SDS011;18701;45.588;5.288;2022-12-19T13:59:54;2.70;;;0.20;;
32200;SDS011;18701;45.588;5.288;2022-12-19T14:02:30;1.38;;;0.20;;
32200;SDS011;18701;45.588;5.288;2022-12-19T14:04:58;2.10;;;0.20;;
32200;SDS011;18701;45.588;5.288;2022-12-19T14:07:31;1.35;;;0.20;;
32200;SDS011;18701;45.588;5.288;2022-12-19T14:10:05;4.15;;;0.32;;
32200;SDS011;18701;45.588;5.288;2022-12-19T14:12:39;0.70;;;0.15;;
32200;SDS011;18701;45.588;5.288;2022-12-19T14:17:52;1.40;;;0.30;;
32200;SDS011;18701;45.588;5.288;2022-12-19T14:20:19;1.25;;;0.20;;
32200;SDS011;18701;45.588;5.288;2022-12-19T14:22:47;3.28;;;0.38;;
32200;SDS011;18701;45.588;5.288;2022-12-19T14:25:12;3.35;;;0.70;;
32200;SDS011;18701;45.588;5.288;2022-12-19T14:27:47;2.45;;;0.45;;
32200;SDS011;18701;45.588;5.288;2022-12-19T14:30:17;5.57;;;0.30;;
32200;SDS011;18701;45.588;5.288;2022-12-19T14:32:48;3.70;;;0.40;;
32200;SDS011;18701;45.588;5.288;2022-12-19T14:35:18;4.60;;;0.93;;
32200;SDS011;18701;45.588;5.288;2022-12-19T14:37:57;1.45;;;0.57;;
32200;SDS011;18701;45.588;5.288;2022-12-19T14:40:28;3.08;;;0.40;;
32200;SDS011;18701;45.588;5.288;2022-12-19T14:43:41;2.45;;;0.50;;
32200;SDS011;18701;45.588;5.288;2022-12-19T14:48:51;1.00;;;0.30;;
32200;SDS011;18701;45.588;5.288;2022-12-19T14:51:19;2.78;;;0.30;;
32200;SDS011;18701;45.588;5.288;2022-12-19T14:56:43;2.85;;;0.68;;
32200;SDS011;18701;45.588;5.288;2022-12-19T14:59:31;2.00;;;0.93;;
32200;SDS011;18701;45.588;5.288;2022-12-19T15:02:17;2.42;;;0.90;;
32200;SDS011;18701;45.588;5.288;2022-12-19T15:07:29;1.00;;;0.20;;
32200;SDS011;18701;45.588;5.288;2022-12-19T15:20:49;2.55;;;0.40;;
32200;SDS011;18701;45.588;5.288;2022-12-19T15:23:16;2.15;;;0.20;;
32200;SDS011;18701;45.588;5.288;2022-12-19T15:25:43;2.50;;;0.43;;
32200;SDS011;18701;45.588;5.288;2022-12-19T15:28:12;2.85;;;0.50;;
32200;SDS011;18701;45.588;5.288;2022-12-19T15:30:41;3.28;;;0.35;;
32200;SDS011;18701;45.588;5.288;2022-12-19T15:33:13;2.67;;;0.25;;
32200;SDS011;18701;45.588;5.288;2022-12-19T15:35:39;4.78;;;0.40;;
32200;SDS011;18701;45.588;5.288;2022-12-19T15:38:06;3.60;;;0.45;;
32200;SDS011;18701;45.588;5.288;2022-12-19T15:40:32;3.05;;;0.40;;
32200;SDS011;18701;45.588;5.288;2022-12-19T15:42:58;2.88;;;0.70;;
32200;SDS011;18701;45.588;5.288;2022-12-19T15:45:24;3.28;;;0.52;;
32200;SDS011;18701;45.588;5.288;2022-12-19T15:47:50;5.90;;;0.68;;
32200;SDS011;18701;45.588;5.288;2022-12-19T15:52:42;7.05;;;1.00;;
32200;SDS011;18701;45.588;5.288;2022-12-19T15:55:11;2.92;;;0.40;;
32200;SDS011;18701;45.588;5.288;2022-12-19T15:57:38;3.63;;;0.38;;
32200;SDS011;18701;45.588;5.288;2022-12-19T16:00:09;5.35;;;0.47;;
32200;SDS011;18701;45.588;5.288;2022-12-19T16:02:42;2.10;;;0.35;;
32200;SDS011;18701;45.588;5.288;2022-12-19T16:05:09;7.85;;;0.50;;
32200;SDS011;18701;45.588;5.288;2022-12-19T16:07:35;5.72;;;0.75;;
32200;SDS011;18701;45.588;5.288;2022-12-19T16:10:01;3.45;;;0.68;;
32200;SDS011;18701;45.588;5.288;2022-12-19T16:12:30;6.45;;;0.75;;
32200;SDS011;18701;45.588;5.288;2022-12-19T16:14:59;3.22;;;0.82;;
32200;SDS011;18701;45.588;5.288;2022-12-19T16:17:26;7.63;;;0.60;;
32200;SDS011;18701;45.588;5.288;2022-12-19T16:19:55;4.18;;;0.75;;
32200;SDS011;18701;45.588;5.288;2022-12-19T16:22:22;2.58;;;0.40;;
32200;SDS011;18701;45.588;5.288;2022-12-19T16:24:50;3.28;;;0.60;;
32200;SDS011;18701;45.588;5.288;2022-12-19T16:29:49;2.60;;;0.50;;
32200;SDS011;18701;45.588;5.288;2022-12-19T16:32:15;2.92;;;0.63;;
32200;SDS011;18701;45.588;5.288;2022-12-19T16:34:41;5.13;;;0.82;;
32200;SDS011;18701;45.588;5.288;2022-12-19T16:37:07;3.28;;;0.70;;
32200;SDS011;18701;45.588;5.288;2022-12-19T16:39:34;2.72;;;0.60;;
32200;SDS011;18701;45.588;5.288;2022-12-19T16:41:59;3.03;;;0.60;;
32200;SDS011;18701;45.588;5.288;2022-12-19T16:44:29;2.22;;;0.63;;
32200;SDS011;18701;45.588;5.288;2022-12-19T16:46:56;2.28;;;0.50;;
32200;SDS011;18701;45.588;5.288;2022-12-19T16:49:22;4.13;;;0.73;;
32200;SDS011;18701;45.588;5.288;2022-12-19T16:51:48;3.65;;;0.55;;
32200;SDS011;18701;45.588;5.288;2022-12-19T16:54:14;2.20;;;1.15;;
32200;SDS011;18701;45.588;5.288;2022-12-19T16:59:15;4.43;;;0.80;;
32200;SDS011;18701;45.588;5.288;2022-12-19T17:01:46;2.83;;;0.75;;
32200;SDS011;18701;45.588;5.288;2022-12-19T17:04:13;4.90;;;1.00;;
32200;SDS011;18701;45.588;5.288;2022-12-19T17:06:40;3.38;;;1.35;;
32200;SDS011;18701;45.588;5.288;2022-12-19T17:09:06;8.75;;;2.13;;
32200;SDS011;18701;45.588;5.288;2022-12-19T17:11:34;5.75;;;0.82;;
32200;SDS011;18701;45.588;5.288;2022-12-19T17:14:01;5.03;;;1.67;;
32200;SDS011;18701;45.588;5.288;2022-12-19T17:16:29;5.25;;;1.40;;
32200;SDS011;18701;45.588;5.288;2022-12-19T17:18:55;8.75;;;1.83;;
32200;SDS011;18701;45.588;5.288;2022-12-19T17:21:22;3.65;;;1.65;;
32200;SDS011;18701;45.588;5.288;2022-12-19T17:23:48;7.72;;;1.58;;
32200;SDS011;18701;45.588;5.288;2022-12-19T17:26:15;3.60;;;1.50;;
32200;SDS011;18701;45.588;5.288;2022-12-19T17:28:41;7.72;;;2.08;;
32200;SDS011;18701;45.588;5.288;2022-12-19T17:31:10;5.25;;;1.90;;
32200;SDS011;18701;45.588;5.288;2022-12-19T17:33:44;9.05;;;1.58;;
32200;SDS011;18701;45.588;5.288;2022-12-19T17:36:10;2.95;;;1.23;;
32200;SDS011;18701;45.588;5.288;2022-12-19T17:38:38;6.25;;;2.22;;
32200;SDS011;18701;45.588;5.288;2022-12-19T17:41:04;3.13;;;0.93;;
32200;SDS011;18701;45.588;5.288;2022-12-19T17:43:30;4.82;;;1.13;;
32200;SDS011;18701;45.588;5.288;2022-12-19T17:45:56;2.60;;;0.38;;
32200;SDS011;18701;45.588;5.288;2022-12-19T17:50:51;3.80;;;1.48;;
32200;SDS011;18701;45.588;5.288;2022-12-19T17:53:18;3.80;;;1.70;;